sensor_id;sensor_type;location;lat;lon;timestamp;P1;durP1;ratioP1;P2;durP2;ratioP2
83682;SDS011;73663;51.298;5.802;2024-01-27T13:34:35;6.00;;;1.90;;
83682;SDS011;73663;51.298;5.802;2024-01-27T13:39:36;8.13;;;1.70;;
83682;SDS011;73663;51.298;5.802;2024-01-27T13:44:37;7.45;;;2.00;;
83682;SDS011;73663;51.298;5.802;2024-01-27T13:49:38;4.78;;;1.48;;
83682;SDS011;73663;51.298;5.802;2024-01-27T13:54:38;6.60;;;1.50;;
83682;SDS011;73663;51.298;5.802;2024-01-27T13:59:39;6.18;;;1.58;;
83682;SDS011;73663;51.298;5.802;2024-01-27T14:04:40;4.32;;;1.30;;
83682;SDS011;73663;51.298;5.802;2024-01-27T14:09:40;5.32;;;1.75;;
83682;SDS011;73663;51.298;5.802;2024-01-27T14:14:41;7.82;;;1.38;;
83682;SDS011;73663;51.298;5.802;2024-01-27T14:19:42;6.43;;;1.70;;
83682;SDS011;73663;51.298;5.802;2024-01-27T14:24:42;5.90;;;1.73;;
83682;SDS011;73663;51.298;5.802;2024-01-27T14:29:43;6.25;;;1.83;;
83682;SDS011;73663;51.298;5.802;2024-01-27T14:34:44;6.22;;;1.55;;
83682;SDS011;73663;51.298;5.802;2024-01-27T14:39:47;5.18;;;1.55;;
83682;SDS011;73663;51.298;5.802;2024-01-27T14:44:48;4.45;;;1.58;;
83682;SDS011;73663;51.298;5.802;2024-01-27T14:49:55;7.15;;;2.55;;
83682;SDS011;73663;51.298;5.802;2024-01-27T14:54:56;6.07;;;1.17;;
83682;SDS011;73663;51.298;5.802;2024-01-27T14:59:56;4.20;;;1.42;;
83682;SDS011;73663;51.298;5.802;2024-01-27T15:04:58;6.13;;;1.40;;
83682;SDS011;73663;51.298;5.802;2024-01-27T15:09:58;4.35;;;1.45;;
83682;SDS011;73663;51.298;5.802;2024-01-27T15:14:59;11.27;;;1.70;;
83682;SDS011;73663;51.298;5.802;2024-01-27T15:19:59;5.22;;;1.63;;
83682;SDS011;73663;51.298;5.802;2024-01-27T15:25:00;5.20;;;1.80;;
83682;SDS011;73663;51.298;5.802;2024-01-27T15:30:00;4.85;;;1.50;;
83682;SDS011;73663;51.298;5.802;2024-01-27T15:35:02;5.32;;;1.60;;
83682;SDS011;73663;51.298;5.802;2024-01-27T15:40:02;5.28;;;1.58;;
83682;SDS011;73663;51.298;5.802;2024-01-27T15:45:04;7.50;;;1.50;;
83682;SDS011;73663;51.298;5.802;2024-01-27T15:50:05;7.05;;;1.83;;
83682;SDS011;73663;51.298;5.802;2024-01-27T15:55:06;5.18;;;1.40;;
83682;SDS011;73663;51.298;5.802;2024-01-27T16:00:07;8.18;;;1.65;;
83682;SDS011;73663;51.298;5.802;2024-01-27T16:05:10;4.72;;;1.80;;
83682;SDS011;73663;51.298;5.802;2024-01-27T16:10:11;7.32;;;1.73;;
83682;SDS011;73663;51.298;5.802;2024-01-27T16:15:11;7.70;;;2.25;;
83682;SDS011;73663;51.298;5.802;2024-01-27T16:20:12;8.02;;;1.88;;
83682;SDS011;73663;51.298;5.802;2024-01-27T16:25:13;6.60;;;1.70;;
83682;SDS011;73663;51.298;5.802;2024-01-27T16:30:14;8.15;;;1.70;;
83682;SDS011;73663;51.298;5.802;2024-01-27T16:35:16;4.18;;;1.38;;
83682;SDS011;73663;51.298;5.802;2024-01-27T16:40:16;3.85;;;1.65;;
83682;SDS011;73663;51.298;5.802;2024-01-27T16:45:17;5.93;;;1.70;;
83682;SDS011;73663;51.298;5.802;2024-01-27T16:50:18;6.43;;;1.90;;
83682;SDS011;73663;51.298;5.802;2024-01-27T16:55:18;6.95;;;1.48;;
83682;SDS011;73663;51.298;5.802;2024-01-27T17:00:19;5.63;;;1.67;;
83682;SDS011;73663;51.298;5.802;2024-01-27T17:05:23;7.40;;;1.90;;
83682;SDS011;73663;51.298;5.802;2024-01-27T17:10:23;6.32;;;2.17;;
83682;SDS011;73663;51.298;5.802;2024-01-27T17:15:24;5.18;;;1.83;;
83682;SDS011;73663;51.298;5.802;2024-01-27T17:20:26;6.00;;;2.20;;
83682;SDS011;73663;51.298;5.802;2024-01-27T17:25:26;5.15;;;2.03;;
83682;SDS011;73663;51.298;5.802;2024-01-27T17:30:27;3.55;;;1.65;;
83682;SDS011;73663;51.298;5.802;2024-01-27T17:35:28;4.07;;;1.67;;
83682;SDS011;73663;51.298;5.802;2024-01-27T17:40:28;4.13;;;1.60;;
83682;SDS011;73663;51.298;5.802;2024-01-27T17:45:29;6.80;;;1.75;;
83682;SDS011;73663;51.298;5.802;2024-01-27T17:50:30;7.47;;;1.70;;
83682;SDS011;73663;51.298;5.802;2024-01-27T17:55:30;3.88;;;1.70;;
83682;SDS011;73663;51.298;5.802;2024-01-27T18:00:31;9.48;;;2.33;;
83682;SDS011;73663;51.298;5.802;2024-01-27T18:05:31;6.63;;;2.55;;
83682;SDS011;73663;51.298;5.802;2024-01-27T18:10:32;8.40;;;2.58;;
83682;SDS011;73663;51.298;5.802;2024-01-27T18:15:34;4.53;;;2.20;;
83682;SDS011;73663;51.298;5.802;2024-01-27T18:20:35;9.45;;;2.35;;
83682;SDS011;73663;51.298;5.802;2024-01-27T18:25:35;4.85;;;2.70;;
83682;SDS011;73663;51.298;5.802;2024-01-27T18:30:36;5.50;;;2.58;;
83682;SDS011;73663;51.298;5.802;2024-01-27T18:35:36;6.78;;;2.67;;
83682;SDS011;73663;51.298;5.802;2024-01-27T18:40:37;11.18;;;3.50;;
83682;SDS011;73663;51.298;5.802;2024-01-27T18:45:38;6.72;;;2.08;;
83682;SDS011;73663;51.298;5.802;2024-01-27T18:50:38;9.52;;;2.80;;
83682;SDS011;73663;51.298;5.802;2024-01-27T18:55:39;6.30;;;2.58;;
83682;SDS011;73663;51.298;5.802;2024-01-27T19:00:41;8.70;;;3.10;;
83682;SDS011;73663;51.298;5.802;2024-01-27T19:05:41;11.25;;;3.15;;
83682;SDS011;73663;51.298;5.802;2024-01-27T19:10:42;7.88;;;2.97;;
83682;SDS011;73663;51.298;5.802;2024-01-27T19:15:45;7.18;;;3.10;;
83682;SDS011;73663;51.298;5.802;2024-01-27T19:20:46;11.07;;;4.80;;
83682;SDS011;73663;51.298;5.802;2024-01-27T19:25:47;11.52;;;3.38;;
83682;SDS011;73663;51.298;5.802;2024-01-27T19:30:47;7.95;;;3.85;;
83682;SDS011;73663;51.298;5.802;2024-01-27T19:35:48;10.40;;;3.60;;
83682;SDS011;73663;51.298;5.802;2024-01-27T19:40:48;7.30;;;3.08;;
83682;SDS011;73663;51.298;5.802;2024-01-27T19:45:50;10.38;;;3.28;;
83682;SDS011;73663;51.298;5.802;2024-01-27T19:50:50;7.07;;;3.20;;
83682;SDS011;73663;51.298;5.802;2024-01-27T19:55:51;11.70;;;3.80;;
83682;SDS011;73663;51.298;5.802;2024-01-27T20:00:51;5.93;;;2.70;;
83682;SDS011;73663;51.298;5.802;2024-01-27T20:05:52;7.22;;;3.30;;
83682;SDS011;73663;51.298;5.802;2024-01-27T20:10:52;11.50;;;3.88;;
83682;SDS011;73663;51.298;5.802;2024-01-27T20:15:53;11.15;;;4.30;;
83682;SDS011;73663;51.298;5.802;2024-01-27T20:20:54;9.70;;;4.22;;
83682;SDS011;73663;51.298;5.802;2024-01-27T20:25:55;12.90;;;5.20;;
83682;SDS011;73663;51.298;5.802;2024-01-27T20:30:55;10.50;;;4.20;;
83682;SDS011;73663;51.298;5.802;2024-01-27T20:35:56;9.45;;;4.82;;
83682;SDS011;73663;51.298;5.802;2024-01-27T20:40:56;12.70;;;4.40;;
83682;SDS011;73663;51.298;5.802;2024-01-27T20:45:57;8.30;;;4.47;;
83682;SDS011;73663;51.298;5.802;2024-01-27T20:51:01;7.78;;;4.10;;
83682;SDS011;73663;51.298;5.802;2024-01-27T20:56:02;10.25;;;5.07;;
83682;SDS011;73663;51.298;5.802;2024-01-27T21:01:03;11.85;;;5.60;;
83682;SDS011;73663;51.298;5.802;2024-01-27T21:06:04;10.73;;;5.00;;
83682;SDS011;73663;51.298;5.802;2024-01-27T21:11:05;27.73;;;6.30;;
83682;SDS011;73663;51.298;5.802;2024-01-27T21:16:08;10.32;;;5.65;;
83682;SDS011;73663;51.298;5.802;2024-01-27T21:21:10;14.90;;;5.82;;
83682;SDS011;73663;51.298;5.802;2024-01-27T21:26:11;10.70;;;5.35;;
83682;SDS011;73663;51.298;5.802;2024-01-27T21:31:12;10.05;;;5.22;;
83682;SDS011;73663;51.298;5.802;2024-01-27T21:36:13;9.73;;;5.28;;
83682;SDS011;73663;51.298;5.802;2024-01-27T21:41:13;11.23;;;4.55;;
83682;SDS011;73663;51.298;5.802;2024-01-27T21:46:14;9.40;;;4.50;;
83682;SDS011;73663;51.298;5.802;2024-01-27T21:51:15;8.80;;;4.85;;
83682;SDS011;73663;51.298;5.802;2024-01-27T21:56:16;12.55;;;4.95;;
83682;SDS011;73663;51.298;5.802;2024-01-27T22:01:17;10.07;;;4.60;;
83682;SDS011;73663;51.298;5.802;2024-01-27T22:06:17;16.60;;;6.80;;
83682;SDS011;73663;51.298;5.802;2024-01-27T22:11:18;13.40;;;5.55;;
83682;SDS011;73663;51.298;5.802;2024-01-27T22:16:18;12.38;;;4.95;;
83682;SDS011;73663;51.298;5.802;2024-01-27T22:21:19;12.82;;;6.00;;
83682;SDS011;73663;51.298;5.802;2024-01-27T22:26:19;10.25;;;4.38;;
83682;SDS011;73663;51.298;5.802;2024-01-27T22:31:20;9.50;;;4.72;;
83682;SDS011;73663;51.298;5.802;2024-01-27T22:36:20;13.52;;;5.65;;
83682;SDS011;73663;51.298;5.802;2024-01-27T22:41:21;7.88;;;4.38;;
83682;SDS011;73663;51.298;5.802;2024-01-27T22:46:23;19.15;;;5.10;;
83682;SDS011;73663;51.298;5.802;2024-01-27T22:51:24;12.50;;;4.95;;
83682;SDS011;73663;51.298;5.802;2024-01-27T22:56:25;9.90;;;5.30;;
83682;SDS011;73663;51.298;5.802;2024-01-27T23:01:25;11.20;;;5.20;;
83682;SDS011;73663;51.298;5.802;2024-01-27T23:06:26;12.57;;;6.20;;
83682;SDS011;73663;51.298;5.802;2024-01-27T23:11:26;10.00;;;5.35;;
83682;SDS011;73663;51.298;5.802;2024-01-27T23:16:28;12.38;;;5.40;;
83682;SDS011;73663;51.298;5.802;2024-01-27T23:21:29;13.25;;;5.55;;
83682;SDS011;73663;51.298;5.802;2024-01-27T23:26:29;16.30;;;5.63;;
83682;SDS011;73663;51.298;5.802;2024-01-27T23:31:30;17.10;;;5.80;;
83682;SDS011;73663;51.298;5.802;2024-01-27T23:36:30;13.82;;;5.40;;
83682;SDS011;73663;51.298;5.802;2024-01-27T23:41:31;15.93;;;5.10;;
83682;SDS011;73663;51.298;5.802;2024-01-27T23:46:32;14.02;;;5.32;;
83682;SDS011;73663;51.298;5.802;2024-01-27T23:51:32;12.18;;;5.43;;
83682;SDS011;73663;51.298;5.802;2024-01-27T23:56:34;11.88;;;5.05;;
